sensor_id;sensor_type;location;lat;lon;timestamp;temperature;humidity
7388;DHT22;3735;50.136;11.062;2023-12-29T00:00:45;8.70;99.90
7388;DHT22;3735;50.136;11.062;2023-12-29T00:03:11;8.70;99.90
7388;DHT22;3735;50.136;11.062;2023-12-29T00:05:37;8.70;99.90
7388;DHT22;3735;50.136;11.062;2023-12-29T00:08:03;8.60;99.90
7388;DHT22;3735;50.136;11.062;2023-12-29T00:10:29;8.60;99.90
7388;DHT22;3735;50.136;11.062;2023-12-29T00:12:55;8.60;99.90
7388;DHT22;3735;50.136;11.062;2023-12-29T00:15:21;8.50;99.90
7388;DHT22;3735;50.136;11.062;2023-12-29T00:17:47;8.50;99.90
7388;DHT22;3735;50.136;11.062;2023-12-29T00:20:13;8.60;99.90
7388;DHT22;3735;50.136;11.062;2023-12-29T00:22:39;8.60;99.90
7388;DHT22;3735;50.136;11.062;2023-12-29T00:25:05;8.60;99.90
7388;DHT22;3735;50.136;11.062;2023-12-29T00:27:35;8.70;99.90
7388;DHT22;3735;50.136;11.062;2023-12-29T00:30:02;8.60;99.90
7388;DHT22;3735;50.136;11.062;2023-12-29T00:32:28;8.60;99.90
7388;DHT22;3735;50.136;11.062;2023-12-29T00:34:53;8.60;99.90
7388;DHT22;3735;50.136;11.062;2023-12-29T00:37:20;8.60;99.90
7388;DHT22;3735;50.136;11.062;2023-12-29T00:39:45;8.50;99.90
7388;DHT22;3735;50.136;11.062;2023-12-29T00:42:11;8.40;99.90
7388;DHT22;3735;50.136;11.062;2023-12-29T00:44:37;8.40;99.90
7388;DHT22;3735;50.136;11.062;2023-12-29T00:47:03;8.30;99.90
7388;DHT22;3735;50.136;11.062;2023-12-29T00:49:29;8.30;99.90
7388;DHT22;3735;50.136;11.062;2023-12-29T00:51:54;8.30;99.90
7388;DHT22;3735;50.136;11.062;2023-12-29T00:54:20;8.30;99.90
7388;DHT22;3735;50.136;11.062;2023-12-29T00:56:50;8.20;99.90
7388;DHT22;3735;50.136;11.062;2023-12-29T00:59:18;8.20;99.90
7388;DHT22;3735;50.136;11.062;2023-12-29T01:01:45;8.20;99.90
7388;DHT22;3735;50.136;11.062;2023-12-29T01:04:11;8.20;99.90
7388;DHT22;3735;50.136;11.062;2023-12-29T01:06:37;8.10;99.90
7388;DHT22;3735;50.136;11.062;2023-12-29T01:09:03;8.20;99.90
7388;DHT22;3735;50.136;11.062;2023-12-29T01:11:29;8.20;99.90
7388;DHT22;3735;50.136;11.062;2023-12-29T01:13:55;8.20;99.90
7388;DHT22;3735;50.136;11.062;2023-12-29T01:16:21;8.30;99.90
7388;DHT22;3735;50.136;11.062;2023-12-29T01:18:47;8.30;99.90
7388;DHT22;3735;50.136;11.062;2023-12-29T01:21:13;8.40;99.90
7388;DHT22;3735;50.136;11.062;2023-12-29T01:23:38;8.40;99.90
7388;DHT22;3735;50.136;11.062;2023-12-29T01:26:04;8.40;99.90
7388;DHT22;3735;50.136;11.062;2023-12-29T01:28:30;8.40;99.90
7388;DHT22;3735;50.136;11.062;2023-12-29T01:30:56;8.40;99.90
7388;DHT22;3735;50.136;11.062;2023-12-29T01:33:21;8.40;99.90
7388;DHT22;3735;50.136;11.062;2023-12-29T01:35:47;8.40;99.90
7388;DHT22;3735;50.136;11.062;2023-12-29T01:38:13;8.40;99.90
7388;DHT22;3735;50.136;11.062;2023-12-29T01:40:43;8.40;99.90
7388;DHT22;3735;50.136;11.062;2023-12-29T01:43:12;8.30;99.90
7388;DHT22;3735;50.136;11.062;2023-12-29T01:45:38;8.40;99.90
7388;DHT22;3735;50.136;11.062;2023-12-29T01:48:05;8.40;99.90
7388;DHT22;3735;50.136;11.062;2023-12-29T01:50:31;8.40;99.90
7388;DHT22;3735;50.136;11.062;2023-12-29T01:52:59;8.50;99.90
7388;DHT22;3735;50.136;11.062;2023-12-29T01:55:29;8.50;99.90
7388;DHT22;3735;50.136;11.062;2023-12-29T01:57:55;8.60;99.90
7388;DHT22;3735;50.136;11.062;2023-12-29T02:00:21;8.60;99.90
7388;DHT22;3735;50.136;11.062;2023-12-29T02:02:48;8.60;99.90
7388;DHT22;3735;50.136;11.062;2023-12-29T02:05:15;8.70;99.90
7388;DHT22;3735;50.136;11.062;2023-12-29T02:07:42;8.60;99.90
7388;DHT22;3735;50.136;11.062;2023-12-29T02:10:09;8.60;99.90
7388;DHT22;3735;50.136;11.062;2023-12-29T02:12:39;8.60;99.90
7388;DHT22;3735;50.136;11.062;2023-12-29T02:15:05;8.50;99.90
7388;DHT22;3735;50.136;11.062;2023-12-29T02:17:40;8.50;99.90
7388;DHT22;3735;50.136;11.062;2023-12-29T02:20:09;8.50;99.90
7388;DHT22;3735;50.136;11.062;2023-12-29T02:22:35;8.40;99.90
7388;DHT22;3735;50.136;11.062;2023-12-29T02:25:02;8.40;99.90
7388;DHT22;3735;50.136;11.062;2023-12-29T02:27:46;8.50;99.90
7388;DHT22;3735;50.136;11.062;2023-12-29T02:30:32;8.50;99.90
7388;DHT22;3735;50.136;11.062;2023-12-29T02:33:10;8.50;99.90
7388;DHT22;3735;50.136;11.062;2023-12-29T02:35:42;8.50;99.90
7388;DHT22;3735;50.136;11.062;2023-12-29T02:38:09;8.50;99.90
7388;DHT22;3735;50.136;11.062;2023-12-29T02:40:36;8.40;99.90
7388;DHT22;3735;50.136;11.062;2023-12-29T02:43:03;8.30;99.90
7388;DHT22;3735;50.136;11.062;2023-12-29T02:45:29;8.30;99.90
7388;DHT22;3735;50.136;11.062;2023-12-29T02:47:55;8.30;99.90
7388;DHT22;3735;50.136;11.062;2023-12-29T02:50:21;8.20;99.90
7388;DHT22;3735;50.136;11.062;2023-12-29T02:52:46;8.10;99.90
7388;DHT22;3735;50.136;11.062;2023-12-29T02:55:12;8.10;99.90
7388;DHT22;3735;50.136;11.062;2023-12-29T02:57:38;8.00;99.90
7388;DHT22;3735;50.136;11.062;2023-12-29T03:00:06;7.90;99.90
7388;DHT22;3735;50.136;11.062;2023-12-29T03:02:32;7.90;99.90
7388;DHT22;3735;50.136;11.062;2023-12-29T03:04:58;8.00;99.90
7388;DHT22;3735;50.136;11.062;2023-12-29T03:07:24;8.00;99.90
7388;DHT22;3735;50.136;11.062;2023-12-29T03:09:50;8.10;99.90
7388;DHT22;3735;50.136;11.062;2023-12-29T03:12:16;8.00;99.90
7388;DHT22;3735;50.136;11.062;2023-12-29T03:14:43;8.10;99.90
7388;DHT22;3735;50.136;11.062;2023-12-29T03:17:09;8.10;99.90
7388;DHT22;3735;50.136;11.062;2023-12-29T03:19:36;8.00;99.90
7388;DHT22;3735;50.136;11.062;2023-12-29T03:22:02;8.00;99.90
7388;DHT22;3735;50.136;11.062;2023-12-29T03:24:29;7.80;99.90
7388;DHT22;3735;50.136;11.062;2023-12-29T03:26:55;7.80;99.90
7388;DHT22;3735;50.136;11.062;2023-12-29T03:29:21;7.70;99.90
7388;DHT22;3735;50.136;11.062;2023-12-29T03:31:47;7.60;99.90
7388;DHT22;3735;50.136;11.062;2023-12-29T03:34:13;7.50;99.90
7388;DHT22;3735;50.136;11.062;2023-12-29T03:36:39;7.40;99.90
7388;DHT22;3735;50.136;11.062;2023-12-29T03:39:04;7.40;99.90
7388;DHT22;3735;50.136;11.062;2023-12-29T03:41:31;7.40;99.90
7388;DHT22;3735;50.136;11.062;2023-12-29T03:43:57;7.40;99.90
7388;DHT22;3735;50.136;11.062;2023-12-29T03:46:25;7.40;99.90
7388;DHT22;3735;50.136;11.062;2023-12-29T03:48:51;7.40;99.90
7388;DHT22;3735;50.136;11.062;2023-12-29T03:51:17;7.40;99.90
7388;DHT22;3735;50.136;11.062;2023-12-29T03:53:44;7.50;99.90
7388;DHT22;3735;50.136;11.062;2023-12-29T03:56:14;7.60;99.90
7388;DHT22;3735;50.136;11.062;2023-12-29T03:58:44;7.60;99.90
7388;DHT22;3735;50.136;11.062;2023-12-29T04:01:11;7.60;99.90
7388;DHT22;3735;50.136;11.062;2023-12-29T04:03:38;7.70;99.90
7388;DHT22;3735;50.136;11.062;2023-12-29T04:06:05;7.70;99.90
7388;DHT22;3735;50.136;11.062;2023-12-29T04:08:35;7.70;99.90
7388;DHT22;3735;50.136;11.062;2023-12-29T04:11:02;7.60;99.90
7388;DHT22;3735;50.136;11.062;2023-12-29T04:13:29;7.70;99.90
7388;DHT22;3735;50.136;11.062;2023-12-29T04:15:55;7.60;99.90
7388;DHT22;3735;50.136;11.062;2023-12-29T04:18:22;7.60;99.90
7388;DHT22;3735;50.136;11.062;2023-12-29T04:20:49;7.60;99.90
7388;DHT22;3735;50.136;11.062;2023-12-29T04:23:15;7.50;99.90
7388;DHT22;3735;50.136;11.062;2023-12-29T04:25:41;7.60;99.90
7388;DHT22;3735;50.136;11.062;2023-12-29T04:28:08;7.60;99.90
7388;DHT22;3735;50.136;11.062;2023-12-29T04:30:34;7.70;99.90
7388;DHT22;3735;50.136;11.062;2023-12-29T04:33:01;7.70;99.90
7388;DHT22;3735;50.136;11.062;2023-12-29T04:35:27;7.80;99.90
7388;DHT22;3735;50.136;11.062;2023-12-29T04:37:52;7.80;99.90
7388;DHT22;3735;50.136;11.062;2023-12-29T04:40:18;7.80;99.90
7388;DHT22;3735;50.136;11.062;2023-12-29T04:42:44;7.80;99.90
7388;DHT22;3735;50.136;11.062;2023-12-29T04:45:10;7.90;99.90
7388;DHT22;3735;50.136;11.062;2023-12-29T04:47:37;7.90;99.90
7388;DHT22;3735;50.136;11.062;2023-12-29T04:50:03;7.90;99.90
7388;DHT22;3735;50.136;11.062;2023-12-29T04:52:31;7.90;99.90
7388;DHT22;3735;50.136;11.062;2023-12-29T04:54:57;7.80;99.90
7388;DHT22;3735;50.136;11.062;2023-12-29T04:57:23;7.80;99.90
7388;DHT22;3735;50.136;11.062;2023-12-29T04:59:49;7.70;99.90
7388;DHT22;3735;50.136;11.062;2023-12-29T05:02:15;7.60;99.90
7388;DHT22;3735;50.136;11.062;2023-12-29T05:04:40;7.70;99.90
7388;DHT22;3735;50.136;11.062;2023-12-29T05:07:09;7.80;99.90
7388;DHT22;3735;50.136;11.062;2023-12-29T05:09:35;7.80;99.90
7388;DHT22;3735;50.136;11.062;2023-12-29T05:12:01;7.80;99.90
7388;DHT22;3735;50.136;11.062;2023-12-29T05:14:27;7.90;99.90
7388;DHT22;3735;50.136;11.062;2023-12-29T05:16:53;7.90;99.90
7388;DHT22;3735;50.136;11.062;2023-12-29T05:19:19;7.90;99.90
7388;DHT22;3735;50.136;11.062;2023-12-29T05:21:45;7.90;99.90
7388;DHT22;3735;50.136;11.062;2023-12-29T05:24:11;8.00;99.90
7388;DHT22;3735;50.136;11.062;2023-12-29T05:26:37;7.90;99.90
7388;DHT22;3735;50.136;11.062;2023-12-29T05:29:03;7.90;99.90
7388;DHT22;3735;50.136;11.062;2023-12-29T05:31:28;7.90;99.90
7388;DHT22;3735;50.136;11.062;2023-12-29T05:33:56;7.80;99.90
7388;DHT22;3735;50.136;11.062;2023-12-29T05:36:21;7.70;99.90
7388;DHT22;3735;50.136;11.062;2023-12-29T05:38:47;7.60;99.90
7388;DHT22;3735;50.136;11.062;2023-12-29T05:41:14;7.60;99.90
7388;DHT22;3735;50.136;11.062;2023-12-29T05:43:40;7.60;99.90
7388;DHT22;3735;50.136;11.062;2023-12-29T05:46:10;7.50;99.90
7388;DHT22;3735;50.136;11.062;2023-12-29T05:48:39;7.50;99.90
7388;DHT22;3735;50.136;11.062;2023-12-29T05:51:09;7.50;99.90
7388;DHT22;3735;50.136;11.062;2023-12-29T05:53:36;7.50;99.90
7388;DHT22;3735;50.136;11.062;2023-12-29T05:56:04;7.50;99.90
7388;DHT22;3735;50.136;11.062;2023-12-29T05:58:30;7.50;99.90
7388;DHT22;3735;50.136;11.062;2023-12-29T06:00:56;7.50;99.90
7388;DHT22;3735;50.136;11.062;2023-12-29T06:03:23;7.50;99.90
7388;DHT22;3735;50.136;11.062;2023-12-29T06:05:49;7.40;99.90
7388;DHT22;3735;50.136;11.062;2023-12-29T06:08:15;7.40;99.90
7388;DHT22;3735;50.136;11.062;2023-12-29T06:10:40;7.50;99.90
7388;DHT22;3735;50.136;11.062;2023-12-29T06:13:06;7.60;99.90
7388;DHT22;3735;50.136;11.062;2023-12-29T06:15:32;7.70;99.90
7388;DHT22;3735;50.136;11.062;2023-12-29T06:17:58;7.80;99.90
7388;DHT22;3735;50.136;11.062;2023-12-29T06:20:25;7.90;99.90
7388;DHT22;3735;50.136;11.062;2023-12-29T06:22:51;8.00;99.90
7388;DHT22;3735;50.136;11.062;2023-12-29T06:25:17;8.10;99.90
7388;DHT22;3735;50.136;11.062;2023-12-29T06:27:43;8.10;99.90
7388;DHT22;3735;50.136;11.062;2023-12-29T06:30:09;8.10;99.90
7388;DHT22;3735;50.136;11.062;2023-12-29T06:32:38;8.10;99.90
7388;DHT22;3735;50.136;11.062;2023-12-29T06:35:05;8.10;99.90
7388;DHT22;3735;50.136;11.062;2023-12-29T06:37:32;8.10;99.90
7388;DHT22;3735;50.136;11.062;2023-12-29T06:39:58;8.10;99.90
7388;DHT22;3735;50.136;11.062;2023-12-29T06:42:24;8.00;99.90
7388;DHT22;3735;50.136;11.062;2023-12-29T06:44:50;7.90;99.90
7388;DHT22;3735;50.136;11.062;2023-12-29T06:47:16;7.80;99.90
7388;DHT22;3735;50.136;11.062;2023-12-29T06:49:42;7.70;99.90
7388;DHT22;3735;50.136;11.062;2023-12-29T06:52:08;7.70;99.90
7388;DHT22;3735;50.136;11.062;2023-12-29T06:54:34;7.70;99.90
7388;DHT22;3735;50.136;11.062;2023-12-29T06:57:00;7.60;99.90
7388;DHT22;3735;50.136;11.062;2023-12-29T06:59:26;7.60;99.90
7388;DHT22;3735;50.136;11.062;2023-12-29T07:01:52;7.50;99.90
7388;DHT22;3735;50.136;11.062;2023-12-29T07:04:18;7.60;99.90
7388;DHT22;3735;50.136;11.062;2023-12-29T07:06:43;7.70;99.90
7388;DHT22;3735;50.136;11.062;2023-12-29T07:09:09;7.80;99.90
7388;DHT22;3735;50.136;11.062;2023-12-29T07:11:36;7.90;99.90
7388;DHT22;3735;50.136;11.062;2023-12-29T07:14:02;7.80;99.90
7388;DHT22;3735;50.136;11.062;2023-12-29T07:16:28;7.90;99.90
7388;DHT22;3735;50.136;11.062;2023-12-29T07:18:54;7.80;99.90
7388;DHT22;3735;50.136;11.062;2023-12-29T07:21:20;7.90;99.90
7388;DHT22;3735;50.136;11.062;2023-12-29T07:23:46;8.00;99.90
7388;DHT22;3735;50.136;11.062;2023-12-29T07:26:12;8.10;99.90
7388;DHT22;3735;50.136;11.062;2023-12-29T07:28:38;8.10;99.90
7388;DHT22;3735;50.136;11.062;2023-12-29T07:31:03;8.10;99.90
7388;DHT22;3735;50.136;11.062;2023-12-29T07:33:30;8.20;99.90
7388;DHT22;3735;50.136;11.062;2023-12-29T07:35:56;8.20;99.90
7388;DHT22;3735;50.136;11.062;2023-12-29T07:38:22;8.20;99.90
7388;DHT22;3735;50.136;11.062;2023-12-29T07:40:49;8.20;99.90
7388;DHT22;3735;50.136;11.062;2023-12-29T07:43:15;8.30;99.90
7388;DHT22;3735;50.136;11.062;2023-12-29T07:45:41;8.30;99.90
7388;DHT22;3735;50.136;11.062;2023-12-29T07:48:08;8.30;99.90
7388;DHT22;3735;50.136;11.062;2023-12-29T07:50:34;8.30;99.90
7388;DHT22;3735;50.136;11.062;2023-12-29T07:53:00;8.30;99.90
7388;DHT22;3735;50.136;11.062;2023-12-29T07:55:30;8.40;99.90
7388;DHT22;3735;50.136;11.062;2023-12-29T07:57:56;8.30;99.90
7388;DHT22;3735;50.136;11.062;2023-12-29T08:00:22;8.40;99.90
7388;DHT22;3735;50.136;11.062;2023-12-29T08:02:49;8.40;99.90
7388;DHT22;3735;50.136;11.062;2023-12-29T08:05:15;8.40;99.90
7388;DHT22;3735;50.136;11.062;2023-12-29T08:07:42;8.50;99.90
7388;DHT22;3735;50.136;11.062;2023-12-29T08:10:08;8.50;99.90
7388;DHT22;3735;50.136;11.062;2023-12-29T08:12:35;8.50;99.90
7388;DHT22;3735;50.136;11.062;2023-12-29T08:15:01;8.60;99.90
7388;DHT22;3735;50.136;11.062;2023-12-29T08:17:28;8.60;99.90
7388;DHT22;3735;50.136;11.062;2023-12-29T08:19:54;8.60;99.90
7388;DHT22;3735;50.136;11.062;2023-12-29T08:22:21;8.70;99.90
7388;DHT22;3735;50.136;11.062;2023-12-29T08:24:47;8.70;99.90
7388;DHT22;3735;50.136;11.062;2023-12-29T08:27:13;8.80;99.90
7388;DHT22;3735;50.136;11.062;2023-12-29T08:29:39;8.90;99.90
7388;DHT22;3735;50.136;11.062;2023-12-29T08:32:07;9.00;99.90
7388;DHT22;3735;50.136;11.062;2023-12-29T08:34:32;9.00;99.90
7388;DHT22;3735;50.136;11.062;2023-12-29T08:37:03;9.10;99.90
7388;DHT22;3735;50.136;11.062;2023-12-29T08:39:29;9.10;99.90
7388;DHT22;3735;50.136;11.062;2023-12-29T08:41:55;9.20;99.90
7388;DHT22;3735;50.136;11.062;2023-12-29T08:44:21;9.20;99.90
7388;DHT22;3735;50.136;11.062;2023-12-29T08:46:47;9.20;99.90
7388;DHT22;3735;50.136;11.062;2023-12-29T08:49:12;9.20;99.90
7388;DHT22;3735;50.136;11.062;2023-12-29T08:51:38;9.10;99.90
7388;DHT22;3735;50.136;11.062;2023-12-29T08:54:04;9.20;99.90
7388;DHT22;3735;50.136;11.062;2023-12-29T08:56:30;9.20;99.90
7388;DHT22;3735;50.136;11.062;2023-12-29T08:58:56;9.30;99.90
7388;DHT22;3735;50.136;11.062;2023-12-29T09:01:22;9.30;99.90
7388;DHT22;3735;50.136;11.062;2023-12-29T09:03:47;9.30;99.90
7388;DHT22;3735;50.136;11.062;2023-12-29T09:06:13;9.30;99.90
7388;DHT22;3735;50.136;11.062;2023-12-29T09:08:39;9.40;99.90
7388;DHT22;3735;50.136;11.062;2023-12-29T09:11:05;9.40;99.90
7388;DHT22;3735;50.136;11.062;2023-12-29T09:13:31;9.50;99.90
7388;DHT22;3735;50.136;11.062;2023-12-29T09:15:59;9.60;99.90
7388;DHT22;3735;50.136;11.062;2023-12-29T09:18:25;9.60;99.90
7388;DHT22;3735;50.136;11.062;2023-12-29T09:20:51;9.70;99.90
7388;DHT22;3735;50.136;11.062;2023-12-29T09:23:17;9.80;99.90
7388;DHT22;3735;50.136;11.062;2023-12-29T09:25:43;9.90;99.90
7388;DHT22;3735;50.136;11.062;2023-12-29T09:28:09;10.00;99.90
7388;DHT22;3735;50.136;11.062;2023-12-29T09:30:35;10.10;99.90
7388;DHT22;3735;50.136;11.062;2023-12-29T09:33:00;10.00;99.90
7388;DHT22;3735;50.136;11.062;2023-12-29T09:35:27;10.00;99.90
7388;DHT22;3735;50.136;11.062;2023-12-29T09:37:53;10.00;99.90
7388;DHT22;3735;50.136;11.062;2023-12-29T09:40:18;9.90;99.90
7388;DHT22;3735;50.136;11.062;2023-12-29T09:42:45;9.90;99.90
7388;DHT22;3735;50.136;11.062;2023-12-29T09:45:13;9.90;99.90
7388;DHT22;3735;50.136;11.062;2023-12-29T09:47:42;9.90;99.90
7388;DHT22;3735;50.136;11.062;2023-12-29T09:50:12;10.00;99.90
7388;DHT22;3735;50.136;11.062;2023-12-29T09:52:39;10.00;99.90
7388;DHT22;3735;50.136;11.062;2023-12-29T09:55:09;10.00;99.90
7388;DHT22;3735;50.136;11.062;2023-12-29T09:57:39;10.10;99.90
7388;DHT22;3735;50.136;11.062;2023-12-29T10:00:11;10.10;99.90
7388;DHT22;3735;50.136;11.062;2023-12-29T10:02:38;10.20;99.90
7388;DHT22;3735;50.136;11.062;2023-12-29T10:05:04;10.40;99.90
7388;DHT22;3735;50.136;11.062;2023-12-29T10:07:38;10.70;99.90
7388;DHT22;3735;50.136;11.062;2023-12-29T10:10:05;10.90;99.90
7388;DHT22;3735;50.136;11.062;2023-12-29T10:12:32;11.40;99.90
7388;DHT22;3735;50.136;11.062;2023-12-29T10:15:12;12.60;99.90
7388;DHT22;3735;50.136;11.062;2023-12-29T10:23:33;15.80;99.90
7388;DHT22;3735;50.136;11.062;2023-12-29T10:26:05;15.50;99.90
7388;DHT22;3735;50.136;11.062;2023-12-29T10:28:32;14.50;99.90
7388;DHT22;3735;50.136;11.062;2023-12-29T10:30:59;14.10;99.90
7388;DHT22;3735;50.136;11.062;2023-12-29T10:33:25;13.70;99.90
7388;DHT22;3735;50.136;11.062;2023-12-29T10:35:57;13.30;99.90
7388;DHT22;3735;50.136;11.062;2023-12-29T10:38:29;13.20;99.90
7388;DHT22;3735;50.136;11.062;2023-12-29T10:41:16;13.50;99.90
7388;DHT22;3735;50.136;11.062;2023-12-29T10:43:47;13.30;99.90
7388;DHT22;3735;50.136;11.062;2023-12-29T10:46:17;12.90;99.90
7388;DHT22;3735;50.136;11.062;2023-12-29T10:48:44;13.00;99.90
7388;DHT22;3735;50.136;11.062;2023-12-29T10:51:10;13.10;99.90
7388;DHT22;3735;50.136;11.062;2023-12-29T10:53:37;12.80;99.90
7388;DHT22;3735;50.136;11.062;2023-12-29T10:56:04;12.70;99.90
7388;DHT22;3735;50.136;11.062;2023-12-29T10:58:30;12.80;99.90
7388;DHT22;3735;50.136;11.062;2023-12-29T11:00:58;13.20;99.90
7388;DHT22;3735;50.136;11.062;2023-12-29T11:03:25;12.90;99.90
7388;DHT22;3735;50.136;11.062;2023-12-29T11:05:58;12.30;99.90
7388;DHT22;3735;50.136;11.062;2023-12-29T11:08:27;11.80;99.90
7388;DHT22;3735;50.136;11.062;2023-12-29T11:10:54;11.40;99.90
7388;DHT22;3735;50.136;11.062;2023-12-29T11:13:21;11.10;99.90
7388;DHT22;3735;50.136;11.062;2023-12-29T11:15:47;11.00;99.90
7388;DHT22;3735;50.136;11.062;2023-12-29T11:18:17;10.80;99.90
7388;DHT22;3735;50.136;11.062;2023-12-29T11:20:45;10.80;99.90
7388;DHT22;3735;50.136;11.062;2023-12-29T11:23:12;10.70;99.90
7388;DHT22;3735;50.136;11.062;2023-12-29T11:25:44;10.70;99.90
7388;DHT22;3735;50.136;11.062;2023-12-29T11:28:11;10.80;99.90
7388;DHT22;3735;50.136;11.062;2023-12-29T11:30:37;11.00;99.90
7388;DHT22;3735;50.136;11.062;2023-12-29T11:33:18;11.10;99.90
7388;DHT22;3735;50.136;11.062;2023-12-29T11:36:16;11.10;99.90
7388;DHT22;3735;50.136;11.062;2023-12-29T11:39:24;11.10;99.90
7388;DHT22;3735;50.136;11.062;2023-12-29T11:42:05;10.90;99.90
7388;DHT22;3735;50.136;11.062;2023-12-29T11:44:37;11.00;99.90
7388;DHT22;3735;50.136;11.062;2023-12-29T11:47:03;11.20;99.90
7388;DHT22;3735;50.136;11.062;2023-12-29T11:49:57;11.30;99.90
7388;DHT22;3735;50.136;11.062;2023-12-29T11:52:40;11.60;99.90
7388;DHT22;3735;50.136;11.062;2023-12-29T11:57:39;11.60;99.90
7388;DHT22;3735;50.136;11.062;2023-12-29T12:00:06;11.40;99.90
7388;DHT22;3735;50.136;11.062;2023-12-29T12:02:33;11.20;99.90
7388;DHT22;3735;50.136;11.062;2023-12-29T12:04:59;11.00;99.90
7388;DHT22;3735;50.136;11.062;2023-12-29T12:09:51;10.90;99.90
7388;DHT22;3735;50.136;11.062;2023-12-29T12:12:40;10.90;99.90
7388;DHT22;3735;50.136;11.062;2023-12-29T12:18:02;11.10;99.90
7388;DHT22;3735;50.136;11.062;2023-12-29T12:20:33;11.10;99.90
7388;DHT22;3735;50.136;11.062;2023-12-29T12:25:39;11.10;99.90
7388;DHT22;3735;50.136;11.062;2023-12-29T12:28:06;11.00;99.90
7388;DHT22;3735;50.136;11.062;2023-12-29T12:30:33;10.90;99.90
7388;DHT22;3735;50.136;11.062;2023-12-29T12:33:03;10.80;99.90
7388;DHT22;3735;50.136;11.062;2023-12-29T12:35:30;10.70;99.90
7388;DHT22;3735;50.136;11.062;2023-12-29T12:38:22;10.70;99.90
7388;DHT22;3735;50.136;11.062;2023-12-29T12:40:50;10.60;99.90
7388;DHT22;3735;50.136;11.062;2023-12-29T12:43:16;10.60;99.90
7388;DHT22;3735;50.136;11.062;2023-12-29T12:45:48;10.60;99.90
7388;DHT22;3735;50.136;11.062;2023-12-29T12:48:32;10.60;99.90
7388;DHT22;3735;50.136;11.062;2023-12-29T12:51:10;10.60;99.90
7388;DHT22;3735;50.136;11.062;2023-12-29T12:53:41;10.50;99.90
7388;DHT22;3735;50.136;11.062;2023-12-29T12:56:09;10.50;99.90
7388;DHT22;3735;50.136;11.062;2023-12-29T12:58:36;10.60;99.90
7388;DHT22;3735;50.136;11.062;2023-12-29T13:01:03;10.60;99.90
7388;DHT22;3735;50.136;11.062;2023-12-29T13:03:30;10.60;99.90
7388;DHT22;3735;50.136;11.062;2023-12-29T13:05:58;10.50;99.90
7388;DHT22;3735;50.136;11.062;2023-12-29T13:08:25;10.60;99.90
7388;DHT22;3735;50.136;11.062;2023-12-29T13:10:52;10.50;99.90
7388;DHT22;3735;50.136;11.062;2023-12-29T13:13:18;10.40;99.90
7388;DHT22;3735;50.136;11.062;2023-12-29T13:15:48;10.40;99.90
7388;DHT22;3735;50.136;11.062;2023-12-29T13:18:15;10.30;99.90
7388;DHT22;3735;50.136;11.062;2023-12-29T13:20:47;10.30;99.90
7388;DHT22;3735;50.136;11.062;2023-12-29T13:23:15;10.30;99.90
7388;DHT22;3735;50.136;11.062;2023-12-29T13:25:43;10.20;99.90
7388;DHT22;3735;50.136;11.062;2023-12-29T13:28:09;10.20;99.90
7388;DHT22;3735;50.136;11.062;2023-12-29T13:30:37;10.20;99.90
7388;DHT22;3735;50.136;11.062;2023-12-29T13:33:18;10.30;99.90
7388;DHT22;3735;50.136;11.062;2023-12-29T13:35:53;10.30;99.90
7388;DHT22;3735;50.136;11.062;2023-12-29T13:38:33;10.20;99.90
7388;DHT22;3735;50.136;11.062;2023-12-29T13:41:05;10.20;99.90
7388;DHT22;3735;50.136;11.062;2023-12-29T13:43:36;10.20;99.90
7388;DHT22;3735;50.136;11.062;2023-12-29T13:46:12;10.20;99.90
7388;DHT22;3735;50.136;11.062;2023-12-29T13:48:41;10.10;99.90
7388;DHT22;3735;50.136;11.062;2023-12-29T13:51:10;10.20;99.90
7388;DHT22;3735;50.136;11.062;2023-12-29T13:53:36;10.20;99.90
7388;DHT22;3735;50.136;11.062;2023-12-29T13:56:08;10.20;99.90
7388;DHT22;3735;50.136;11.062;2023-12-29T13:58:35;10.20;99.90
7388;DHT22;3735;50.136;11.062;2023-12-29T14:01:04;10.30;99.90
7388;DHT22;3735;50.136;11.062;2023-12-29T14:03:47;10.20;99.90
7388;DHT22;3735;50.136;11.062;2023-12-29T14:06:22;10.20;99.90
7388;DHT22;3735;50.136;11.062;2023-12-29T14:08:57;10.30;99.90
7388;DHT22;3735;50.136;11.062;2023-12-29T14:11:23;10.30;99.90
7388;DHT22;3735;50.136;11.062;2023-12-29T14:13:48;10.30;99.90
7388;DHT22;3735;50.136;11.062;2023-12-29T14:16:14;10.30;99.90
7388;DHT22;3735;50.136;11.062;2023-12-29T14:21:29;10.30;99.90
7388;DHT22;3735;50.136;11.062;2023-12-29T14:29:18;10.30;99.90
7388;DHT22;3735;50.136;11.062;2023-12-29T14:31:45;10.30;99.90
7388;DHT22;3735;50.136;11.062;2023-12-29T14:34:13;10.30;99.90
7388;DHT22;3735;50.136;11.062;2023-12-29T14:36:41;10.30;99.90
7388;DHT22;3735;50.136;11.062;2023-12-29T14:39:08;10.30;99.90
7388;DHT22;3735;50.136;11.062;2023-12-29T14:41:41;10.20;99.90
7388;DHT22;3735;50.136;11.062;2023-12-29T14:44:07;10.20;99.90
7388;DHT22;3735;50.136;11.062;2023-12-29T14:46:35;10.20;99.90
7388;DHT22;3735;50.136;11.062;2023-12-29T14:49:02;10.10;99.90
7388;DHT22;3735;50.136;11.062;2023-12-29T14:51:28;10.10;99.90
7388;DHT22;3735;50.136;11.062;2023-12-29T14:53:54;10.00;99.90
7388;DHT22;3735;50.136;11.062;2023-12-29T14:56:20;9.90;99.90
7388;DHT22;3735;50.136;11.062;2023-12-29T14:58:45;9.80;99.90
7388;DHT22;3735;50.136;11.062;2023-12-29T15:01:12;9.70;99.90
7388;DHT22;3735;50.136;11.062;2023-12-29T15:03:38;9.60;99.90
7388;DHT22;3735;50.136;11.062;2023-12-29T15:06:04;9.60;99.90
7388;DHT22;3735;50.136;11.062;2023-12-29T15:08:30;9.50;99.90
7388;DHT22;3735;50.136;11.062;2023-12-29T15:11:03;9.60;99.90
7388;DHT22;3735;50.136;11.062;2023-12-29T15:13:31;9.50;99.90
7388;DHT22;3735;50.136;11.062;2023-12-29T15:15:58;9.60;99.90
7388;DHT22;3735;50.136;11.062;2023-12-29T15:18:25;9.60;99.90
7388;DHT22;3735;50.136;11.062;2023-12-29T15:20:53;9.60;99.90
7388;DHT22;3735;50.136;11.062;2023-12-29T15:23:19;9.70;99.90
7388;DHT22;3735;50.136;11.062;2023-12-29T15:25:45;9.70;99.90
7388;DHT22;3735;50.136;11.062;2023-12-29T15:28:11;9.70;99.90
7388;DHT22;3735;50.136;11.062;2023-12-29T15:30:37;9.70;99.90
7388;DHT22;3735;50.136;11.062;2023-12-29T15:33:02;9.70;99.90
7388;DHT22;3735;50.136;11.062;2023-12-29T15:35:28;9.80;99.90
7388;DHT22;3735;50.136;11.062;2023-12-29T15:37:54;9.70;99.90
7388;DHT22;3735;50.136;11.062;2023-12-29T15:40:21;9.80;99.90
7388;DHT22;3735;50.136;11.062;2023-12-29T15:42:47;9.80;99.90
7388;DHT22;3735;50.136;11.062;2023-12-29T15:45:14;9.80;99.90
7388;DHT22;3735;50.136;11.062;2023-12-29T15:47:42;9.90;99.90
7388;DHT22;3735;50.136;11.062;2023-12-29T15:50:08;9.90;99.90
7388;DHT22;3735;50.136;11.062;2023-12-29T15:52:34;9.90;99.90
7388;DHT22;3735;50.136;11.062;2023-12-29T15:55:00;9.90;99.90
7388;DHT22;3735;50.136;11.062;2023-12-29T15:57:25;9.90;99.90
7388;DHT22;3735;50.136;11.062;2023-12-29T15:59:51;9.80;99.90
7388;DHT22;3735;50.136;11.062;2023-12-29T16:02:17;9.90;99.90
7388;DHT22;3735;50.136;11.062;2023-12-29T16:04:44;9.80;99.90
7388;DHT22;3735;50.136;11.062;2023-12-29T16:07:10;9.80;99.90
7388;DHT22;3735;50.136;11.062;2023-12-29T16:09:35;9.90;99.90
7388;DHT22;3735;50.136;11.062;2023-12-29T16:12:01;9.90;99.90
7388;DHT22;3735;50.136;11.062;2023-12-29T16:14:27;9.90;99.90
7388;DHT22;3735;50.136;11.062;2023-12-29T16:16:53;9.90;99.90
7388;DHT22;3735;50.136;11.062;2023-12-29T16:19:19;9.90;99.90
7388;DHT22;3735;50.136;11.062;2023-12-29T16:21:45;9.90;99.90
7388;DHT22;3735;50.136;11.062;2023-12-29T16:24:11;9.80;99.90